createdAt,value
2022-11-23T00:02:04.677Z,95868.34
2022-11-23T00:04:34.990Z,95873.53
2022-11-23T00:07:03.433Z,95877.81
2022-11-23T00:13:19.176Z,95883.31
2022-11-23T00:15:47.565Z,95877.47
2022-11-23T00:18:16.774Z,95874.50
2022-11-23T00:20:47.011Z,95872.88
2022-11-23T00:23:18.096Z,95866.69
2022-11-23T00:25:47.423Z,95860.38
2022-11-23T00:28:16.710Z,95858.06
2022-11-23T00:30:51.286Z,95862.16
2022-11-23T00:33:19.861Z,95865.50
2022-11-23T00:35:49.947Z,95860.28
2022-11-23T00:38:20.389Z,95854.34
2022-11-23T00:40:50.687Z,95852.41
2022-11-23T00:43:19.554Z,95849.78
2022-11-23T00:45:51.342Z,95856.50
2022-11-23T00:48:19.639Z,95850.94
2022-11-23T00:50:49.990Z,95853.75
2022-11-23T00:53:18.781Z,95844.38
2022-11-23T00:55:53.323Z,95841.59
2022-11-23T00:58:25.726Z,95849.91
2022-11-23T01:01:02.822Z,95847.81
2022-11-23T01:03:32.407Z,95842.28
2022-11-23T01:06:07.875Z,95847.09
2022-11-23T01:08:37.509Z,95849.53
2022-11-23T01:11:07.912Z,95854.50
2022-11-23T01:13:38.106Z,95856.25
2022-11-23T01:16:09.352Z,95852.94
2022-11-23T01:18:37.856Z,95855.28
2022-11-23T01:21:07.809Z,95851.97
2022-11-23T01:23:37.281Z,95853.75
2022-11-23T01:26:07.585Z,95854.38
2022-11-23T01:28:37.869Z,95857.69
2022-11-23T01:31:08.844Z,95854.47
2022-11-23T01:33:37.951Z,95850.03
2022-11-23T01:36:16.970Z,95846.81
2022-11-23T01:38:46.740Z,95849.28
2022-11-23T01:41:17.342Z,95855.56
2022-11-23T01:43:46.809Z,95859.16
2022-11-23T01:46:15.185Z,95861.78
2022-11-23T01:48:48.471Z,95852.03
2022-11-23T01:51:22.613Z,95852.75
2022-11-23T01:53:55.157Z,95853.75
2022-11-23T01:56:31.828Z,95859.44
2022-11-23T01:59:02.189Z,95855.69
2022-11-23T02:01:31.876Z,95865.84
2022-11-23T02:04:02.942Z,95860.72
2022-11-23T02:06:34.042Z,95865.16
2022-11-23T02:09:04.115Z,95871.59
2022-11-23T02:11:32.293Z,95870.53
2022-11-23T02:14:00.684Z,95876.91
2022-11-23T02:16:31.943Z,95878.69
2022-11-23T02:19:00.780Z,95878.38
2022-11-23T02:21:29.261Z,95879.19
2022-11-23T02:24:06.114Z,95882.28
2022-11-23T02:26:39.191Z,95885.63
2022-11-23T02:29:12.788Z,95882.38
2022-11-23T02:31:40.914Z,95889.59
2022-11-23T02:34:09.005Z,95890.13
2022-11-23T02:36:40.945Z,95886.56
2022-11-23T02:39:12.585Z,95887.78
2022-11-23T02:41:44.683Z,95891.22
2022-11-23T02:44:33.904Z,95885.28
2022-11-23T02:47:02.261Z,95898.16
2022-11-23T02:49:30.798Z,95890.41
2022-11-23T02:51:59.107Z,95887.78
2022-11-23T02:54:27.963Z,95889.66
2022-11-23T02:56:57.487Z,95896.75
2022-11-23T02:59:25.724Z,95892.75
2022-11-23T03:01:54.875Z,95890.19
2022-11-23T03:04:27.546Z,95885.81
2022-11-23T03:06:56.300Z,95897.53
2022-11-23T03:09:26.338Z,95902.72
2022-11-23T03:11:54.986Z,95896.72
2022-11-23T03:14:25.889Z,95897.31
2022-11-23T03:16:59.495Z,95899.63
2022-11-23T03:19:28.875Z,95908.00
2022-11-23T03:21:57.501Z,95905.53
2022-11-23T03:24:25.571Z,95908.13
2022-11-23T03:26:55.476Z,95906.38
2022-11-23T03:29:26.589Z,95901.19
2022-11-23T03:31:56.578Z,95896.44
2022-11-23T03:34:25.934Z,95897.78
2022-11-23T03:36:54.011Z,95892.31
2022-11-23T03:39:22.195Z,95893.94
2022-11-23T03:41:50.279Z,95899.03
2022-11-23T03:44:20.359Z,95897.44
2022-11-23T03:46:51.509Z,95904.19
2022-11-23T03:49:19.513Z,95895.50
2022-11-23T03:51:47.522Z,95893.00
2022-11-23T03:54:15.889Z,95896.81
2022-11-23T03:56:44.169Z,95892.81
2022-11-23T03:59:12.459Z,95906.75
2022-11-23T04:01:40.754Z,95898.13
2022-11-23T04:04:16.061Z,95899.47
2022-11-23T04:07:13.636Z,95902.06
2022-11-23T04:09:48.148Z,95892.88
2022-11-23T04:12:38.871Z,95896.16
2022-11-23T04:15:09.415Z,95899.41
2022-11-23T04:17:37.904Z,95900.00
2022-11-23T04:20:09.341Z,95897.97
2022-11-23T04:22:38.074Z,95901.69
2022-11-23T04:25:06.906Z,95905.84
2022-11-23T04:27:35.030Z,95901.19
2022-11-23T04:30:04.758Z,95897.06
2022-11-23T04:32:33.518Z,95905.63
2022-11-23T04:35:01.905Z,95901.06
2022-11-23T04:37:31.393Z,95899.59
2022-11-23T04:39:59.445Z,95895.69
2022-11-23T04:42:38.662Z,95890.78
2022-11-23T04:45:08.450Z,95893.50
2022-11-23T04:47:37.309Z,95894.78
2022-11-23T04:50:10.718Z,95907.16
2022-11-23T04:52:40.394Z,95905.75
2022-11-23T04:55:14.407Z,95903.28
2022-11-23T04:57:50.662Z,95905.09
2022-11-23T05:00:19.270Z,95908.16
2022-11-23T05:02:48.967Z,95903.91
2022-11-23T05:05:26.621Z,95911.94
2022-11-23T05:07:58.874Z,95913.41
2022-11-23T05:10:37.739Z,95910.38
2022-11-23T05:13:06.648Z,95913.81
2022-11-23T05:15:34.617Z,95911.38
2022-11-23T05:18:03.615Z,95912.81
2022-11-23T05:20:32.413Z,95914.94
2022-11-23T05:23:01.992Z,95926.25
2022-11-23T05:25:31.625Z,95925.78
2022-11-23T05:28:16.676Z,95924.38
2022-11-23T05:30:51.901Z,95923.97
2022-11-23T05:33:20.233Z,95920.81
2022-11-23T05:35:49.493Z,95918.13
2022-11-23T05:38:21.309Z,95923.97
2022-11-23T05:40:49.436Z,95916.41
2022-11-23T05:43:17.729Z,95915.41
2022-11-23T05:45:45.924Z,95916.94
2022-11-23T05:48:15.782Z,95916.16
2022-11-23T05:50:55.443Z,95920.75
2022-11-23T05:53:35.990Z,95917.81
2022-11-23T05:56:30.070Z,95922.69
2022-11-23T05:59:16.854Z,95926.25
2022-11-23T06:01:49.899Z,95930.19
2022-11-23T06:04:25.252Z,95921.09
2022-11-23T06:06:54.673Z,95916.78
2022-11-23T06:09:24.099Z,95921.56
2022-11-23T06:11:54.649Z,95922.19
2022-11-23T06:14:23.083Z,95912.53
2022-11-23T06:16:52.409Z,95919.00
2022-11-23T06:19:33.801Z,95919.84
2022-11-23T06:22:03.112Z,95917.25
2022-11-23T06:24:36.438Z,95913.44
2022-11-23T06:27:22.973Z,95919.31
2022-11-23T06:29:52.384Z,95926.78
2022-11-23T06:32:22.032Z,95930.03
2022-11-23T06:34:50.099Z,95927.78
2022-11-23T06:37:18.979Z,95937.63
2022-11-23T06:39:54.378Z,95935.16
2022-11-23T06:42:39.807Z,95933.75
2022-11-23T06:45:18.305Z,95933.59
2022-11-23T06:47:47.952Z,95935.94
2022-11-23T06:50:17.139Z,95926.38
2022-11-23T06:52:47.294Z,95937.00
2022-11-23T06:55:16.980Z,95940.84
2022-11-23T06:57:45.144Z,95941.47
2022-11-23T07:00:15.621Z,95940.72
2022-11-23T07:02:45.270Z,95946.31
2022-11-23T07:05:16.499Z,95939.59
2022-11-23T07:07:44.982Z,95939.59
2022-11-23T07:10:21.874Z,95942.00
2022-11-23T07:12:53.805Z,95948.78
2022-11-23T07:15:23.466Z,95952.00
2022-11-23T07:17:53.171Z,95953.75
2022-11-23T07:20:23.354Z,95957.88
2022-11-23T07:23:01.498Z,95944.66
2022-11-23T07:25:31.570Z,95948.41
2022-11-23T07:28:02.730Z,95944.03
2022-11-23T07:30:32.643Z,95952.56
2022-11-23T07:33:02.240Z,95948.22
2022-11-23T07:35:31.779Z,95949.25
2022-11-23T07:38:00.654Z,95946.53
2022-11-23T07:40:29.393Z,95955.97
2022-11-23T07:43:02.269Z,95951.03
2022-11-23T07:45:31.706Z,95949.47
2022-11-23T07:48:03.217Z,95948.88
2022-11-23T07:50:31.653Z,95955.16
2022-11-23T07:53:00.127Z,95944.91
2022-11-23T07:55:28.494Z,95949.69
2022-11-23T07:57:56.549Z,95949.66
2022-11-23T08:00:28.922Z,95952.50
2022-11-23T08:03:26.038Z,95949.66
2022-11-23T08:05:47.322Z,95959.41
2022-11-23T08:08:15.326Z,95946.78
2022-11-23T08:10:46.265Z,95954.88
2022-11-23T08:13:19.057Z,95958.28
2022-11-23T08:15:53.956Z,95948.16
2022-11-23T08:18:24.508Z,95954.03
2022-11-23T08:20:52.653Z,95966.91
2022-11-23T08:23:21.501Z,95956.31
2022-11-23T08:25:49.542Z,95961.31
2022-11-23T08:28:18.035Z,95966.13
2022-11-23T08:30:46.260Z,95964.53
2022-11-23T08:33:16.976Z,95967.59
2022-11-23T08:35:45.332Z,95959.78
2022-11-23T08:38:13.604Z,95961.41
2022-11-23T08:40:41.917Z,95957.06
2022-11-23T08:43:09.947Z,95958.00
2022-11-23T08:45:38.267Z,95957.56
2022-11-23T08:48:07.510Z,95963.38
2022-11-23T08:50:37.261Z,95966.66
2022-11-23T08:53:05.763Z,95962.34
2022-11-23T08:55:34.086Z,95958.59
2022-11-23T08:58:02.428Z,95963.06
2022-11-23T09:00:31.080Z,95962.16
2022-11-23T09:03:00.513Z,95964.09
2022-11-23T09:05:29.571Z,95962.63
2022-11-23T09:08:01.078Z,95963.72
2022-11-23T09:10:29.747Z,95962.09
2022-11-23T09:12:57.817Z,95972.00
2022-11-23T09:15:26.161Z,95975.75
2022-11-23T09:17:54.411Z,95976.47
2022-11-23T09:20:22.519Z,95982.22
2022-11-23T09:22:54.891Z,95973.75
2022-11-23T09:25:25.170Z,95977.03
2022-11-23T09:27:58.542Z,95970.31
2022-11-23T09:30:26.813Z,95971.88
2022-11-23T09:32:56.570Z,95975.22
2022-11-23T09:35:25.424Z,95966.72
2022-11-23T09:37:57.131Z,95967.53
2022-11-23T09:40:29.865Z,95967.69
2022-11-23T09:43:12.012Z,95969.59
2022-11-23T09:45:47.355Z,95963.59
2022-11-23T09:48:38.285Z,95969.53
2022-11-23T09:51:15.813Z,95965.31
2022-11-23T09:53:49.532Z,95959.63
2022-11-23T09:56:23.643Z,95957.69
2022-11-23T09:58:55.969Z,95966.81
2022-11-23T10:01:24.535Z,95961.66
2022-11-23T10:03:53.149Z,95961.84
2022-11-23T10:06:24.075Z,95963.22
2022-11-23T10:09:13.868Z,95960.88
2022-11-23T10:12:21.007Z,95960.63
2022-11-23T10:15:02.870Z,95956.22
2022-11-23T10:17:51.124Z,95962.25
2022-11-23T10:20:35.085Z,95955.81
2022-11-23T10:23:05.538Z,95953.34
2022-11-23T10:25:40.774Z,95941.97
2022-11-23T10:28:14.472Z,95941.56
2022-11-23T10:30:46.679Z,95942.81
2022-11-23T10:33:25.023Z,95944.91
2022-11-23T10:35:53.613Z,95944.16
2022-11-23T10:38:23.082Z,95938.97
2022-11-23T10:41:01.843Z,95948.03
2022-11-23T10:43:33.652Z,95935.13
2022-11-23T10:46:40.422Z,95937.34
2022-11-23T10:49:18.464Z,95930.38
2022-11-23T10:51:52.099Z,95930.00
2022-11-23T10:54:24.712Z,95925.88
2022-11-23T10:56:54.689Z,95926.09
2022-11-23T10:59:33.932Z,95926.53
2022-11-23T11:02:14.736Z,95922.94
2022-11-23T11:04:44.857Z,95925.84
2022-11-23T11:07:24.042Z,95921.31
2022-11-23T11:10:05.167Z,95913.06
2022-11-23T11:12:35.578Z,95914.56
2022-11-23T11:15:15.819Z,95916.78
2022-11-23T11:17:44.461Z,95908.03
2022-11-23T11:20:34.123Z,95905.53
2022-11-23T11:23:05.245Z,95917.38
2022-11-23T11:25:36.210Z,95912.41
2022-11-23T11:28:07.659Z,95918.50
2022-11-23T11:30:47.165Z,95921.19
2022-11-23T11:33:21.065Z,95920.41
2022-11-23T11:35:53.657Z,95923.22
2022-11-23T11:38:29.911Z,95919.19
2022-11-23T11:41:01.750Z,95928.94
2022-11-23T11:43:39.553Z,95922.88
2022-11-23T11:46:31.290Z,95924.94
2022-11-23T11:49:07.737Z,95920.84
2022-11-23T11:51:41.333Z,95920.81
2022-11-23T11:54:19.693Z,95918.53
2022-11-23T11:56:51.085Z,95924.03
2022-11-23T11:59:27.174Z,95924.56
2022-11-23T12:02:01.524Z,95920.81
2022-11-23T12:04:38.768Z,95920.19
2022-11-23T12:07:15.449Z,95927.25
2022-11-23T12:09:48.501Z,95927.06
2022-11-23T12:12:19.447Z,95923.53
2022-11-23T12:14:48.000Z,95922.03
2022-11-23T12:18:04.816Z,95932.88
2022-11-23T12:20:45.862Z,95928.00
2022-11-23T12:23:26.072Z,95923.78
2022-11-23T12:26:07.934Z,95931.53
2022-11-23T12:28:52.394Z,95937.78
2022-11-23T12:31:39.296Z,95930.63
2022-11-23T12:34:38.025Z,95920.28
2022-11-23T12:37:30.351Z,95918.66
2022-11-23T12:40:20.748Z,95916.13
2022-11-23T12:42:52.827Z,95919.16
2022-11-23T12:45:54.570Z,95926.75
2022-11-23T12:48:50.847Z,95933.72
2022-11-23T12:51:28.074Z,95922.72
2022-11-23T12:54:13.704Z,95928.66
2022-11-23T12:56:57.112Z,95916.88
2022-11-23T12:59:27.207Z,95915.91
2022-11-23T13:02:00.278Z,95916.84
2022-11-23T13:04:48.494Z,95917.75
2022-11-23T13:07:57.081Z,95917.91
2022-11-23T13:10:36.908Z,95927.88
2022-11-23T13:13:29.050Z,95923.81
2022-11-23T13:16:15.957Z,95915.88
2022-11-23T13:19:02.978Z,95930.50
2022-11-23T13:21:37.961Z,95921.47
2022-11-23T13:24:25.163Z,95920.22
2022-11-23T13:27:31.796Z,95924.28
2022-11-23T13:30:11.115Z,95926.53
2022-11-23T13:32:55.036Z,95919.81
2022-11-23T13:35:56.084Z,95922.22
2022-11-23T13:38:43.613Z,95924.25
2022-11-23T13:41:57.362Z,95925.81
2022-11-23T13:44:29.458Z,95919.22
2022-11-23T13:47:05.510Z,95913.00
2022-11-23T13:49:39.042Z,95913.47
2022-11-23T13:52:28.231Z,95912.59
2022-11-23T13:55:05.583Z,95908.84
2022-11-23T13:57:37.871Z,95914.56
2022-11-23T14:00:43.666Z,95916.31
2022-11-23T14:03:51.786Z,95911.91
2022-11-23T14:06:24.948Z,95912.47
2022-11-23T14:09:00.347Z,95922.25
2022-11-23T14:11:29.670Z,95920.16
2022-11-23T14:14:01.949Z,95922.09
2022-11-23T14:16:54.059Z,95922.25
2022-11-23T14:19:33.820Z,95922.03
2022-11-23T14:22:09.432Z,95927.88
2022-11-23T14:24:53.673Z,95926.22
2022-11-23T14:27:51.434Z,95931.03
2022-11-23T14:30:40.071Z,95932.53
2022-11-23T14:33:23.109Z,95936.22
2022-11-23T14:36:04.257Z,95936.81
2022-11-23T14:39:05.631Z,95931.53
2022-11-23T14:41:36.398Z,95936.75
2022-11-23T14:44:07.021Z,95940.03
2022-11-23T14:46:35.082Z,95938.47
2022-11-23T14:49:07.959Z,95936.41
2022-11-23T14:51:43.164Z,95938.50
2022-11-23T14:54:12.988Z,95938.09
2022-11-23T14:56:45.440Z,95942.34
2022-11-23T14:59:23.470Z,95941.91
2022-11-23T15:01:53.420Z,95940.03
2022-11-23T15:04:29.272Z,95933.91
2022-11-23T15:07:05.161Z,95942.78
2022-11-23T15:09:46.073Z,95945.41
2022-11-23T15:12:23.485Z,95938.59
2022-11-23T15:14:52.437Z,95940.19
2022-11-23T15:17:22.236Z,95939.03
2022-11-23T15:19:58.316Z,95940.94
2022-11-23T15:22:28.994Z,95937.06
2022-11-23T15:25:08.110Z,95941.84
2022-11-23T15:27:41.418Z,95945.50
2022-11-23T15:30:16.672Z,95947.38
2022-11-23T15:32:45.010Z,95946.75
2022-11-23T15:35:16.945Z,95947.91
2022-11-23T15:37:48.918Z,95952.69
2022-11-23T15:40:18.999Z,95946.41
2022-11-23T15:42:49.741Z,95945.44
2022-11-23T15:45:39.214Z,95950.44
2022-11-23T15:48:14.058Z,95942.63
2022-11-23T15:50:50.617Z,95952.50
2022-11-23T15:53:22.170Z,95948.00
2022-11-23T15:55:51.149Z,95948.28
2022-11-23T15:58:20.724Z,95937.63
2022-11-23T16:00:52.760Z,95940.66
2022-11-23T16:03:33.833Z,95938.72
2022-11-23T16:06:28.544Z,95939.09
2022-11-23T16:08:57.867Z,95935.50
2022-11-23T16:11:32.575Z,95935.50
2022-11-23T16:14:19.132Z,95940.44
2022-11-23T16:16:49.791Z,95939.22
2022-11-23T16:19:24.136Z,95941.75
2022-11-23T16:22:01.747Z,95936.63
2022-11-23T16:24:35.394Z,95941.66
2022-11-23T16:27:14.071Z,95945.59
2022-11-23T16:29:42.566Z,95947.78
2022-11-23T16:32:23.734Z,95953.88
2022-11-23T16:34:52.492Z,95957.72
2022-11-23T16:37:21.151Z,95951.94
2022-11-23T16:39:50.559Z,95949.69
2022-11-23T16:42:19.208Z,95957.09
2022-11-23T16:44:47.585Z,95961.78
2022-11-23T16:47:24.510Z,95963.91
2022-11-23T16:49:53.506Z,95967.78
2022-11-23T16:52:22.798Z,95962.84
2022-11-23T16:54:53.619Z,95971.66
2022-11-23T16:57:28.869Z,95971.56
2022-11-23T16:59:57.880Z,95965.03
2022-11-23T17:03:34.685Z,95968.19
2022-11-23T17:06:03.122Z,95963.38
2022-11-23T17:08:31.420Z,95966.75
2022-11-23T17:11:00.883Z,95967.63
2022-11-23T17:13:30.487Z,95970.00
2022-11-23T17:15:58.513Z,95974.47
2022-11-23T17:18:26.550Z,95966.75
2022-11-23T17:20:55.987Z,95975.88
2022-11-23T17:23:24.028Z,95974.00
2022-11-23T17:25:52.287Z,95971.34
2022-11-23T17:28:22.346Z,95963.91
2022-11-23T17:30:51.045Z,95963.81
2022-11-23T17:33:19.166Z,95970.88
2022-11-23T17:35:47.907Z,95971.03
2022-11-23T17:38:18.260Z,95970.44
2022-11-23T17:40:46.755Z,95964.13
2022-11-23T17:43:15.560Z,95966.06
2022-11-23T17:45:46.053Z,95957.91
2022-11-23T17:48:16.973Z,95961.22
2022-11-23T17:50:47.377Z,95960.09
2022-11-23T17:53:16.740Z,95972.78
2022-11-23T17:55:46.245Z,95961.94
2022-11-23T17:58:14.407Z,95957.38
2022-11-23T18:00:44.316Z,95956.72
2022-11-23T18:03:12.459Z,95958.19
2022-11-23T18:05:40.604Z,95959.13
2022-11-23T18:08:09.281Z,95967.16
2022-11-23T18:10:37.377Z,95963.00
2022-11-23T18:13:05.568Z,95972.41
2022-11-23T18:15:33.786Z,95957.94
2022-11-23T18:18:04.995Z,95957.66
2022-11-23T18:20:33.253Z,95959.34
2022-11-23T18:23:01.345Z,95950.31
2022-11-23T18:25:29.628Z,95939.56
2022-11-23T18:27:57.626Z,95946.25
2022-11-23T18:30:25.727Z,95947.75
2022-11-23T18:32:53.769Z,95939.44
2022-11-23T18:35:23.392Z,95955.94
2022-11-23T18:37:51.615Z,95960.66
2022-11-23T18:40:19.654Z,95963.22
2022-11-23T18:42:48.035Z,95973.41
2022-11-23T18:45:16.018Z,95975.97
2022-11-23T18:47:44.085Z,95979.97
2022-11-23T18:50:12.127Z,95975.59
2022-11-23T18:52:41.693Z,95974.19
2022-11-23T18:55:09.873Z,95978.03
2022-11-23T18:57:37.859Z,95975.59
2022-11-23T19:00:08.117Z,95984.66
2022-11-23T19:02:37.527Z,95985.56
2022-11-23T19:05:06.105Z,95994.69
2022-11-23T19:07:34.212Z,95991.41
2022-11-23T19:10:03.841Z,96000.72
2022-11-23T19:12:32.096Z,95999.72
2022-11-23T19:15:00.178Z,95993.56
2022-11-23T19:17:28.363Z,95996.88
2022-11-23T19:19:56.765Z,95997.31
2022-11-23T19:22:25.128Z,96002.38
2022-11-23T19:24:53.256Z,96002.09
2022-11-23T19:27:22.922Z,96013.31
2022-11-23T19:29:51.930Z,96017.69
2022-11-23T19:32:20.430Z,96018.00
2022-11-23T19:34:48.486Z,96012.25
2022-11-23T19:37:16.622Z,96015.19
2022-11-23T19:39:44.795Z,96016.84
2022-11-23T19:42:12.788Z,96019.03
2022-11-23T19:44:42.341Z,96022.31
2022-11-23T19:47:16.376Z,96026.00
2022-11-23T19:49:47.137Z,96019.63
2022-11-23T19:52:15.301Z,96016.78
2022-11-23T19:54:43.365Z,96028.75
2022-11-23T19:57:11.362Z,96027.00
2022-11-23T19:59:39.839Z,96027.81
2022-11-23T20:02:11.887Z,96026.50
2022-11-23T20:04:40.089Z,96023.84
2022-11-23T20:07:08.117Z,96024.69
2022-11-23T20:09:36.455Z,96030.66
2022-11-23T20:12:04.847Z,96023.94
2022-11-23T20:14:33.014Z,96032.19
2022-11-23T20:17:01.088Z,96031.03
2022-11-23T20:19:30.958Z,96032.16
2022-11-23T20:21:59.164Z,96036.84
2022-11-23T20:24:27.179Z,96031.34
2022-11-23T20:26:55.468Z,96038.97
2022-11-23T20:29:23.552Z,96034.44
2022-11-23T20:31:52.147Z,96042.66
2022-11-23T20:34:24.028Z,96042.53
2022-11-23T20:36:55.658Z,96039.78
2022-11-23T20:39:23.716Z,96042.28
2022-11-23T20:41:51.785Z,96041.13
2022-11-23T20:44:20.970Z,96046.66
2022-11-23T20:47:04.474Z,96048.47
2022-11-23T20:49:33.321Z,96053.59
2022-11-23T20:52:03.046Z,96045.00
2022-11-23T20:54:32.644Z,96049.34
2022-11-23T20:57:00.905Z,96042.72
2022-11-23T20:59:29.449Z,96038.19
2022-11-23T21:01:57.751Z,96038.91
2022-11-23T21:04:26.284Z,96043.03
2022-11-23T21:06:54.660Z,96035.16
2022-11-23T21:09:24.214Z,96043.25
2022-11-23T21:12:09.872Z,96043.56
2022-11-23T21:14:38.134Z,96037.63
2022-11-23T21:17:06.685Z,96043.34
2022-11-23T21:19:36.645Z,96039.84
2022-11-23T21:22:07.635Z,96043.63
2022-11-23T21:24:37.873Z,96038.38
2022-11-23T21:27:07.871Z,96051.03
2022-11-23T21:29:35.820Z,96056.03
2022-11-23T21:32:04.060Z,96059.50
2022-11-23T21:34:32.618Z,96061.53
2022-11-23T21:37:01.902Z,96067.28
2022-11-23T21:39:31.981Z,96078.03
2022-11-23T21:42:01.698Z,96076.38
2022-11-23T21:44:29.730Z,96077.00
2022-11-23T21:46:57.936Z,96079.84
2022-11-23T21:49:28.664Z,96087.13
2022-11-23T21:51:57.064Z,96086.69
2022-11-23T21:54:25.124Z,96091.81
2022-11-23T21:56:53.130Z,96097.81
2022-11-23T21:59:23.362Z,96099.50
2022-11-23T22:01:51.389Z,96098.22
2022-11-23T22:04:19.590Z,96102.41
2022-11-23T22:06:47.583Z,96106.56
2022-11-23T22:09:15.812Z,96108.72
2022-11-23T22:11:45.212Z,96106.94
2022-11-23T22:14:14.275Z,96109.13
2022-11-23T22:16:46.123Z,96112.44
2022-11-23T22:19:16.408Z,96110.50
2022-11-23T22:21:45.683Z,96113.75
2022-11-23T22:24:15.267Z,96120.28
2022-11-23T22:26:43.990Z,96114.84
2022-11-23T22:29:12.547Z,96120.28
2022-11-23T22:31:41.100Z,96118.06
2022-11-23T22:34:12.993Z,96126.97
2022-11-23T22:36:41.447Z,96117.97
2022-11-23T22:39:10.307Z,96118.25
2022-11-23T22:41:39.194Z,96129.81
2022-11-23T22:44:09.537Z,96125.84
2022-11-23T22:46:38.729Z,96125.13
2022-11-23T22:49:07.380Z,96127.72
2022-11-23T22:51:37.013Z,96129.22
2022-11-23T22:54:05.410Z,96134.56
2022-11-23T22:56:33.945Z,96139.72
2022-11-23T22:59:01.950Z,96136.25
2022-11-23T23:01:31.669Z,96133.00
2022-11-23T23:04:02.108Z,96140.50
2022-11-23T23:06:33.722Z,96135.97
2022-11-23T23:09:05.615Z,96140.75
2022-11-23T23:11:35.464Z,96139.69
2022-11-23T23:14:03.833Z,96142.78
2022-11-23T23:16:31.971Z,96142.16
2022-11-23T23:19:00.540Z,96147.41
2022-11-23T23:21:29.904Z,96150.94
2022-11-23T23:24:00.034Z,96152.34
2022-11-23T23:26:30.429Z,96154.41
2022-11-23T23:28:59.790Z,96153.28
2022-11-23T23:31:29.080Z,96159.56
2022-11-23T23:33:57.188Z,96160.78
2022-11-23T23:36:25.701Z,96157.28
2022-11-23T23:38:53.834Z,96150.81
2022-11-23T23:41:22.211Z,96161.53
2022-11-23T23:43:51.864Z,96162.22
2022-11-23T23:46:20.047Z,96159.94
2022-11-23T23:48:48.093Z,96161.31
2022-11-23T23:51:18.490Z,96163.59
2022-11-23T23:53:47.095Z,96166.78
2022-11-23T23:56:17.218Z,96165.72
2022-11-23T23:58:46.234Z,96163.19
